ORMM/BSR METAR and TAF weather

Enter ICAO airport designator
Station Type Date Time Source
ORMM METAR 2021/01/20 22:00 UTC NOAA

ORMM 202200Z 24014KT 6000 NSC 14/06 Q1019 NOSIG


Station Type Date Time Source
ORMM Decoded METAR 2021/01/20 22:00 UTC NOAA

Station name not available
Jan 20, 2021 - 05:00 PM EST / 2021.01.20 2200 UTC
Wind: from the WSW (240 degrees) at 16 MPH (14 KT):0
Visibility: 3 mile(s):0
Temperature: 57 F (14 C)
Dew Point: 42 F (6 C)
Relative Humidity: 58%
Pressure (altimeter): 30.09 in. Hg (1019 hPa)
ob: ORMM 202200Z 24014KT 6000 NSC 14/06 Q1019 NOSIG
cycle: 22

Station Type Date Time Source
ORMM TAF 2021/01/20 18:19 UTC NOAA

TAF ORMM 201700Z 2018/2118 13012KT CAVOK
TEMPO 2100/2104 25010KT 800NSC

Example: see airport list